createdAt,value
2019-03-12T00:00:23.129Z,5.99
2019-03-12T00:02:52.709Z,5.94
2019-03-12T00:05:22.221Z,5.87
2019-03-12T00:07:51.760Z,5.76
2019-03-12T00:10:21.221Z,5.68
2019-03-12T00:12:50.837Z,5.56
2019-03-12T00:15:20.383Z,5.47
2019-03-12T00:17:50.008Z,5.46
2019-03-12T00:20:19.547Z,5.43
2019-03-12T00:22:48.983Z,5.34
2019-03-12T00:25:18.526Z,5.29
2019-03-12T00:27:48.035Z,5.19
2019-03-12T00:30:18.362Z,5.25
2019-03-12T00:32:47.817Z,5.16
2019-03-12T00:35:17.733Z,5.07
2019-03-12T00:37:47.180Z,5.09
2019-03-12T00:40:17.645Z,5.25
2019-03-12T00:42:47.166Z,5.15
2019-03-12T00:45:16.806Z,5.20
2019-03-12T00:47:46.346Z,5.12
2019-03-12T00:50:15.965Z,5.22
2019-03-12T00:52:45.571Z,5.18
2019-03-12T00:55:15.876Z,5.11
2019-03-12T00:57:45.414Z,5.13
2019-03-12T01:00:17.530Z,5.15
2019-03-12T01:02:47.108Z,5.28
2019-03-12T01:05:16.828Z,5.33
2019-03-12T01:07:46.370Z,5.31
2019-03-12T01:10:16.905Z,5.30
2019-03-12T01:12:46.442Z,5.19
2019-03-12T01:15:16.271Z,5.18
2019-03-12T01:17:45.790Z,5.14
2019-03-12T01:20:16.493Z,5.21
2019-03-12T01:22:45.989Z,5.21
2019-03-12T01:25:15.948Z,5.36
2019-03-12T01:27:45.411Z,5.32
2019-03-12T01:30:17.353Z,5.33
2019-03-12T01:32:46.913Z,5.43
2019-03-12T01:35:16.697Z,5.48
2019-03-12T01:37:46.245Z,5.35
2019-03-12T01:40:16.403Z,5.34
2019-03-12T01:42:45.909Z,5.31
2019-03-12T01:45:16.196Z,5.25
2019-03-12T01:47:45.417Z,5.11
2019-03-12T01:50:15.984Z,5.14
2019-03-12T01:52:45.474Z,5.20
2019-03-12T01:55:16.703Z,5.28
2019-03-12T01:57:46.279Z,5.40
2019-03-12T02:00:18.370Z,5.17
2019-03-12T02:02:48.044Z,5.32
2019-03-12T02:05:17.741Z,5.29
2019-03-12T02:07:47.414Z,5.29
2019-03-12T02:10:17.121Z,5.20
2019-03-12T02:12:46.796Z,5.27
2019-03-12T02:15:17.284Z,5.19
2019-03-12T02:17:46.913Z,5.20
2019-03-12T02:20:19.211Z,5.09
2019-03-12T02:22:48.769Z,4.98
2019-03-12T02:25:19.472Z,4.89
2019-03-12T02:27:48.979Z,4.90
2019-03-12T02:30:20.840Z,4.84
2019-03-12T02:32:50.401Z,4.76
2019-03-12T02:35:20.113Z,4.85
2019-03-12T02:37:49.908Z,4.78
2019-03-12T02:40:20.233Z,4.77
2019-03-12T02:42:49.784Z,4.62
2019-03-12T02:45:19.498Z,4.60
2019-03-12T02:47:49.053Z,4.46
2019-03-12T02:50:18.808Z,4.46
2019-03-12T02:52:48.330Z,4.35
2019-03-12T02:55:17.825Z,4.45
2019-03-12T02:57:47.121Z,4.51
2019-03-12T03:00:20.730Z,4.47
2019-03-12T03:02:50.651Z,4.47
2019-03-12T03:05:20.348Z,4.57
2019-03-12T03:07:51.925Z,4.46
2019-03-12T03:10:21.825Z,4.49
2019-03-12T03:12:51.428Z,4.58
2019-03-12T03:15:24.331Z,4.50
2019-03-12T03:17:53.932Z,4.48
2019-03-12T03:20:23.379Z,4.30
2019-03-12T03:22:52.877Z,4.46
2019-03-12T03:25:22.426Z,4.48
2019-03-12T03:27:51.951Z,4.42
2019-03-12T03:30:23.970Z,4.49
2019-03-12T03:32:53.666Z,4.26
2019-03-12T03:35:23.274Z,4.28
2019-03-12T03:37:54.384Z,4.18
2019-03-12T03:40:23.890Z,4.22
2019-03-12T03:42:53.417Z,4.17
2019-03-12T03:45:23.017Z,4.30
2019-03-12T03:47:52.508Z,4.19
2019-03-12T03:50:22.119Z,3.96
2019-03-12T03:52:51.834Z,3.98
2019-03-12T03:55:22.551Z,4.01
2019-03-12T03:57:52.249Z,4.00
2019-03-12T04:00:23.144Z,3.89
2019-03-12T04:02:52.750Z,4.01
2019-03-12T04:05:22.350Z,4.04
2019-03-12T04:07:51.913Z,4.10
2019-03-12T04:10:21.428Z,3.99
2019-03-12T04:12:50.619Z,3.94
2019-03-12T04:15:20.369Z,3.93
2019-03-12T04:17:50.066Z,3.97
2019-03-12T04:20:19.785Z,3.92
2019-03-12T04:22:49.263Z,3.90
2019-03-12T04:25:18.790Z,3.90
2019-03-12T04:27:47.834Z,3.75
2019-03-12T04:30:18.617Z,3.90
2019-03-12T04:32:48.125Z,3.95
2019-03-12T04:35:20.802Z,3.95
2019-03-12T04:37:50.542Z,3.91
2019-03-12T04:40:20.241Z,4.08
2019-03-12T04:42:49.944Z,4.11
2019-03-12T04:45:19.636Z,3.90
2019-03-12T04:47:49.134Z,3.90
2019-03-12T04:50:18.714Z,3.76
2019-03-12T04:52:48.297Z,3.83
2019-03-12T04:55:17.975Z,3.80
2019-03-12T04:57:47.568Z,3.70
2019-03-12T05:00:18.545Z,3.56
2019-03-12T05:02:48.014Z,3.45
2019-03-12T05:05:17.720Z,3.53
2019-03-12T05:07:47.329Z,3.40
2019-03-12T05:10:17.415Z,3.36
2019-03-12T05:12:46.877Z,3.37
2019-03-12T05:15:18.220Z,3.34
2019-03-12T05:17:47.666Z,3.28
2019-03-12T05:20:17.356Z,3.25
2019-03-12T05:22:46.796Z,3.09
2019-03-12T05:25:16.365Z,3.18
2019-03-12T05:27:46.002Z,3.13
2019-03-12T05:30:17.817Z,3.06
2019-03-12T05:32:47.290Z,2.93
2019-03-12T05:35:16.826Z,2.92
2019-03-12T05:37:46.432Z,2.93
2019-03-12T05:40:17.109Z,2.90
2019-03-12T05:42:46.617Z,2.95
2019-03-12T05:45:17.327Z,2.87
2019-03-12T05:47:46.943Z,3.00
2019-03-12T05:50:17.773Z,2.86
2019-03-12T05:52:49.146Z,3.10
2019-03-12T05:55:18.821Z,3.09
2019-03-12T05:57:48.488Z,3.18
2019-03-12T06:00:18.800Z,3.18
2019-03-12T06:02:48.389Z,3.30
2019-03-12T06:05:17.976Z,3.32
2019-03-12T06:07:47.443Z,3.65
2019-03-12T06:10:17.259Z,3.60
2019-03-12T06:12:46.769Z,3.45
2019-03-12T06:15:16.920Z,3.52
2019-03-12T06:17:46.381Z,3.63
2019-03-12T06:20:16.466Z,3.95
2019-03-12T06:22:45.919Z,4.02
2019-03-12T06:25:15.505Z,4.54
2019-03-12T06:27:45.100Z,4.69
2019-03-12T06:30:16.371Z,4.69
2019-03-12T06:32:47.610Z,4.52
2019-03-12T06:35:18.846Z,4.34
2019-03-12T06:37:50.061Z,4.11
2019-03-12T06:40:21.281Z,4.02
2019-03-12T06:42:52.595Z,4.19
2019-03-12T06:45:23.145Z,4.26
2019-03-12T06:47:54.437Z,4.23
2019-03-12T06:50:25.525Z,4.22
2019-03-12T06:52:56.768Z,4.46
2019-03-12T06:55:30.670Z,4.61
2019-03-12T06:58:04.190Z,4.69
2019-03-12T07:00:35.389Z,5.37
2019-03-12T07:03:06.641Z,6.30
2019-03-12T07:05:37.816Z,7.35
2019-03-12T07:08:09.354Z,7.89
2019-03-12T07:10:40.437Z,9.16
2019-03-12T07:13:49.961Z,9.11
2019-03-12T07:16:21.262Z,10.33
2019-03-12T07:18:52.198Z,11.01
2019-03-12T07:21:23.443Z,10.58
2019-03-12T07:23:54.610Z,10.36
2019-03-12T07:26:25.910Z,10.27
2019-03-12T07:28:57.106Z,10.56
2019-03-12T07:31:28.604Z,10.52
2019-03-12T07:33:59.903Z,10.61
2019-03-12T07:36:30.453Z,11.42
2019-03-12T07:39:01.613Z,11.12
2019-03-12T07:41:33.051Z,11.93
2019-03-12T07:44:04.241Z,11.87
2019-03-12T07:46:35.683Z,11.57
2019-03-12T07:49:07.143Z,12.22
2019-03-12T07:51:38.300Z,12.16
2019-03-12T07:54:08.754Z,12.27
2019-03-12T07:56:39.157Z,12.11
2019-03-12T07:59:10.398Z,11.63
2019-03-12T08:01:41.931Z,11.95
2019-03-12T08:04:13.370Z,12.31
2019-03-12T08:06:44.551Z,11.35
2019-03-12T08:09:15.914Z,11.51
2019-03-12T08:11:47.130Z,11.97
2019-03-12T08:14:18.365Z,11.78
2019-03-12T08:16:49.573Z,11.95
2019-03-12T08:19:20.748Z,11.43
2019-03-12T08:21:51.891Z,11.77
2019-03-12T08:24:23.173Z,12.13
2019-03-12T08:26:54.390Z,12.07
2019-03-12T08:29:25.562Z,12.75
2019-03-12T08:31:56.880Z,11.98
2019-03-12T08:34:28.147Z,12.08
2019-03-12T08:36:59.314Z,11.84
2019-03-12T08:39:29.230Z,12.01
2019-03-12T08:42:00.526Z,11.75
2019-03-12T08:44:31.611Z,12.00
2019-03-12T08:47:02.937Z,11.72
2019-03-12T08:49:35.012Z,11.74
2019-03-12T08:52:06.033Z,11.35
2019-03-12T08:54:37.197Z,10.92
2019-03-12T08:57:08.794Z,11.73
2019-03-12T08:59:39.951Z,11.46
2019-03-12T09:02:11.307Z,11.56
2019-03-12T09:04:42.477Z,11.64
2019-03-12T09:07:14.014Z,11.37
2019-03-12T09:09:45.124Z,10.68
2019-03-12T09:12:16.478Z,10.04
2019-03-12T09:14:47.631Z,9.61
2019-03-12T09:17:18.793Z,9.33
2019-03-12T09:19:49.972Z,9.35
2019-03-12T09:22:21.143Z,9.26
2019-03-12T09:24:52.278Z,9.30
2019-03-12T09:27:23.613Z,9.36
2019-03-12T09:29:54.760Z,9.07
2019-03-12T09:32:25.998Z,9.31
2019-03-12T09:34:57.130Z,9.51
2019-03-12T09:37:28.372Z,9.75
2019-03-12T09:39:59.626Z,9.76
2019-03-12T09:42:31.016Z,9.60
2019-03-12T09:45:02.250Z,9.58
2019-03-12T09:47:33.544Z,9.25
2019-03-12T09:50:05.242Z,9.30
2019-03-12T09:52:36.403Z,9.56
2019-03-12T09:55:08.645Z,9.87
2019-03-12T09:57:39.767Z,10.15
2019-03-12T10:00:16.512Z,10.01
2019-03-12T10:02:49.627Z,9.99
2019-03-12T10:05:20.824Z,9.91
2019-03-12T10:07:52.292Z,9.55
2019-03-12T10:10:23.483Z,9.39
2019-03-12T10:12:53.896Z,9.68
2019-03-12T10:18:34.575Z,9.83
2019-03-12T10:21:03.933Z,9.62
2019-03-12T10:23:35.298Z,9.30
2019-03-12T10:26:06.563Z,9.69
2019-03-12T10:28:40.731Z,9.93
2019-03-12T10:31:12.055Z,10.35
2019-03-12T10:33:43.375Z,10.40
2019-03-12T10:36:14.723Z,10.81
2019-03-12T10:38:49.059Z,10.85
2019-03-12T10:41:20.220Z,10.34
2019-03-12T10:43:49.760Z,10.24
2019-03-12T10:46:21.003Z,9.95
2019-03-12T10:48:50.720Z,10.28
2019-03-12T10:51:20.288Z,10.08
2019-03-12T10:53:49.799Z,10.02
2019-03-12T10:56:19.389Z,10.01
2019-03-12T10:58:48.875Z,10.06
2019-03-12T11:01:19.057Z,9.80
2019-03-12T11:03:49.330Z,10.13
2019-03-12T11:06:19.602Z,10.14
2019-03-12T11:08:50.037Z,10.26
2019-03-12T11:11:20.334Z,10.22
2019-03-12T11:13:50.919Z,10.22
2019-03-12T11:19:51.674Z,10.75
2019-03-12T11:22:42.773Z,10.64
2019-03-12T11:25:25.921Z,10.45
2019-03-12T11:27:45.169Z,10.53
2019-03-12T11:30:17.403Z,10.75
2019-03-12T11:32:47.009Z,10.83
2019-03-12T11:35:16.641Z,10.60
2019-03-12T11:37:46.154Z,10.78
2019-03-12T11:40:18.493Z,10.97
2019-03-12T11:42:48.151Z,11.08
2019-03-12T11:45:19.862Z,11.26
2019-03-12T11:47:49.352Z,11.08
2019-03-12T11:50:20.970Z,10.92
2019-03-12T11:52:55.707Z,10.96
2019-03-12T11:55:22.166Z,10.59
2019-03-12T11:57:51.629Z,10.96
2019-03-12T12:00:26.220Z,11.01
2019-03-12T12:03:00.288Z,11.03
2019-03-12T12:05:27.188Z,11.13
2019-03-12T12:07:56.634Z,11.00
2019-03-12T12:10:26.295Z,10.69
2019-03-12T12:12:55.864Z,10.77
2019-03-12T12:15:25.362Z,10.43
2019-03-12T12:17:54.758Z,10.62
2019-03-12T12:20:30.151Z,10.91
2019-03-12T12:22:55.671Z,10.86
2019-03-12T12:25:25.222Z,10.97
2019-03-12T12:27:54.773Z,10.83
2019-03-12T12:30:24.971Z,10.77
2019-03-12T12:32:54.512Z,10.86
2019-03-12T12:35:24.077Z,10.91
2019-03-12T12:37:53.621Z,10.47
2019-03-12T12:40:22.885Z,10.61
2019-03-12T12:42:52.456Z,10.75
2019-03-12T12:45:24.843Z,10.63
2019-03-12T12:47:54.349Z,10.66
2019-03-12T12:50:24.165Z,10.89
2019-03-12T12:52:53.788Z,10.84
2019-03-12T12:55:23.377Z,10.94
2019-03-12T12:57:52.921Z,10.97
2019-03-12T13:00:23.916Z,10.98
2019-03-12T13:02:53.476Z,11.03
2019-03-12T13:05:23.168Z,10.78
2019-03-12T13:07:52.784Z,10.76
2019-03-12T13:10:25.368Z,10.94
2019-03-12T13:12:54.985Z,10.80
2019-03-12T13:15:24.793Z,10.81
2019-03-12T13:17:54.404Z,11.11
2019-03-12T13:20:24.015Z,11.27
2019-03-12T13:22:53.647Z,11.37
2019-03-12T13:25:23.244Z,11.56
2019-03-12T13:27:52.883Z,11.99
2019-03-12T13:30:23.685Z,11.79
2019-03-12T13:32:53.199Z,11.72
2019-03-12T13:35:22.924Z,11.39
2019-03-12T13:37:52.419Z,11.49
2019-03-12T13:40:24.459Z,11.51
2019-03-12T13:42:54.316Z,11.05
2019-03-12T13:45:26.139Z,10.84
2019-03-12T13:47:56.065Z,10.62
2019-03-12T13:50:25.976Z,10.61
2019-03-12T13:52:57.767Z,10.71
2019-03-12T13:55:27.694Z,10.82
2019-03-12T13:57:57.477Z,10.86
2019-03-12T14:00:28.719Z,10.67
2019-03-12T14:02:57.893Z,10.40
2019-03-12T14:05:27.424Z,10.33
2019-03-12T14:07:57.059Z,10.35
2019-03-12T14:10:27.359Z,10.52
2019-03-12T14:12:57.592Z,10.50
2019-03-12T14:15:30.554Z,10.52
2019-03-12T14:18:00.885Z,10.44
2019-03-12T14:20:33.469Z,10.85
2019-03-12T14:23:02.948Z,10.94
2019-03-12T14:25:32.692Z,11.07
2019-03-12T14:28:02.303Z,10.99
2019-03-12T14:30:31.913Z,11.01
2019-03-12T14:33:01.627Z,10.79
2019-03-12T14:35:31.212Z,10.78
2019-03-12T14:38:01.048Z,11.00
2019-03-12T14:40:30.649Z,11.25
2019-03-12T14:43:00.263Z,11.54
2019-03-12T14:45:30.466Z,11.57
2019-03-12T14:48:00.157Z,11.59
2019-03-12T14:50:34.197Z,11.43
2019-03-12T14:53:21.012Z,11.36
2019-03-12T14:55:39.605Z,11.18
2019-03-12T14:58:09.637Z,11.22
2019-03-12T15:00:40.057Z,11.11
2019-03-12T15:03:09.739Z,11.16
2019-03-12T15:05:39.348Z,11.13
2019-03-12T15:08:12.068Z,11.11
2019-03-12T15:10:41.771Z,10.93
2019-03-12T15:13:11.342Z,10.88
2019-03-12T15:15:40.908Z,10.64
2019-03-12T15:18:10.518Z,10.64
2019-03-12T15:20:40.233Z,10.62
2019-03-12T15:23:09.871Z,10.57
2019-03-12T15:25:39.597Z,10.57
2019-03-12T15:28:09.154Z,10.56
2019-03-12T15:30:38.662Z,10.58
2019-03-12T15:33:08.344Z,10.49
2019-03-12T15:35:37.817Z,10.52
2019-03-12T15:38:07.347Z,10.42
2019-03-12T15:40:36.886Z,10.28
2019-03-12T15:43:06.279Z,10.33
2019-03-12T15:45:35.624Z,10.20
2019-03-12T15:48:05.059Z,10.31
2019-03-12T15:53:31.343Z,10.46
2019-03-12T15:56:00.952Z,10.62
2019-03-12T15:58:30.478Z,10.64
2019-03-12T16:01:02.576Z,10.41
2019-03-12T16:03:31.519Z,10.22
2019-03-12T16:06:21.948Z,10.20
2019-03-12T16:08:51.483Z,10.18
2019-03-12T16:14:36.402Z,10.09
2019-03-12T16:17:05.919Z,10.13
2019-03-12T16:19:35.436Z,10.03
2019-03-12T16:22:04.978Z,9.91
2019-03-12T16:24:34.418Z,9.95
2019-03-12T16:27:04.074Z,9.91
2019-03-12T16:29:33.724Z,9.91
2019-03-12T16:32:03.189Z,9.89
2019-03-12T16:34:32.631Z,9.77
2019-03-12T16:37:02.115Z,9.75
2019-03-12T16:39:31.717Z,9.75
2019-03-12T16:42:01.312Z,9.77
2019-03-12T16:44:30.921Z,9.77
2019-03-12T16:47:00.627Z,9.69
2019-03-12T16:49:30.189Z,9.67
2019-03-12T16:51:59.673Z,9.69
2019-03-12T16:54:29.114Z,9.68
2019-03-12T16:56:58.587Z,9.60
2019-03-12T16:59:28.018Z,9.60
2019-03-12T17:01:57.264Z,9.48
2019-03-12T17:04:26.730Z,9.62
2019-03-12T17:06:56.234Z,9.54
2019-03-12T17:09:27.012Z,9.51
2019-03-12T17:11:56.495Z,9.44
2019-03-12T17:14:38.060Z,9.46
2019-03-12T17:16:57.102Z,9.28
2019-03-12T17:19:26.649Z,9.25
2019-03-12T17:22:36.154Z,9.38
2019-03-12T17:25:09.049Z,9.41
2019-03-12T17:27:38.640Z,9.32
2019-03-12T17:30:28.949Z,9.36
2019-03-12T17:32:58.431Z,9.30
2019-03-12T17:35:30.842Z,9.25
2019-03-12T17:38:00.379Z,9.30
2019-03-12T17:40:30.045Z,9.31
2019-03-12T17:42:59.462Z,9.32
2019-03-12T17:45:28.838Z,9.27
2019-03-12T17:47:58.399Z,9.31
2019-03-12T17:50:27.978Z,9.25
2019-03-12T17:52:59.172Z,9.36
2019-03-12T17:55:29.000Z,9.31
2019-03-12T17:57:58.693Z,9.36
2019-03-12T18:00:47.414Z,9.29
2019-03-12T18:03:16.946Z,9.35
2019-03-12T18:05:46.470Z,9.38
2019-03-12T18:08:16.060Z,9.39
2019-03-12T18:10:45.249Z,9.53
2019-03-12T18:13:14.867Z,9.56
2019-03-12T18:15:44.005Z,9.49
2019-03-12T18:18:13.624Z,9.44
2019-03-12T18:20:44.162Z,9.59
2019-03-12T18:23:13.864Z,9.61
2019-03-12T18:25:45.289Z,9.52
2019-03-12T18:28:15.203Z,9.48
2019-03-12T18:30:45.147Z,9.56
2019-03-12T18:33:15.154Z,9.53
2019-03-12T18:35:44.825Z,9.64
2019-03-12T18:38:14.368Z,9.72
2019-03-12T18:40:44.068Z,9.59
2019-03-12T18:43:15.028Z,9.61
2019-03-12T18:45:44.627Z,9.61
2019-03-12T18:48:14.335Z,9.59
2019-03-12T18:50:43.943Z,9.60
2019-03-12T18:53:14.454Z,9.61
2019-03-12T18:55:45.702Z,9.66
2019-03-12T18:58:15.281Z,9.67
2019-03-12T19:00:48.886Z,9.77
2019-03-12T19:03:18.644Z,9.79
2019-03-12T19:05:48.206Z,9.74
2019-03-12T19:08:17.785Z,9.71
2019-03-12T19:10:47.337Z,9.73
2019-03-12T19:13:16.859Z,9.79
2019-03-12T19:15:46.335Z,9.74
2019-03-12T19:18:15.871Z,9.75
2019-03-12T19:20:45.419Z,9.75
2019-03-12T19:23:17.238Z,9.90
2019-03-12T19:25:48.661Z,9.85
2019-03-12T19:28:18.108Z,9.95
2019-03-12T19:30:48.007Z,10.03
2019-03-12T19:33:19.168Z,9.99
2019-03-12T19:35:48.630Z,9.98
2019-03-12T19:38:18.370Z,9.97
2019-03-12T19:40:50.798Z,10.03
2019-03-12T19:43:20.406Z,10.02
2019-03-12T19:45:50.034Z,10.07
2019-03-12T19:48:19.767Z,10.17
2019-03-12T19:50:49.484Z,10.24
2019-03-12T19:53:18.977Z,10.26
2019-03-12T19:55:51.615Z,10.27
2019-03-12T19:58:21.334Z,10.26
2019-03-12T20:00:51.148Z,10.24
2019-03-12T20:03:20.795Z,10.24
2019-03-12T20:05:52.165Z,10.28
2019-03-12T20:08:21.778Z,10.31
2019-03-12T20:10:55.251Z,10.18
2019-03-12T20:13:28.059Z,10.19
2019-03-12T20:16:00.730Z,10.06
2019-03-12T20:18:51.089Z,10.04
2019-03-12T20:21:22.946Z,10.12
2019-03-12T20:24:32.490Z,10.15
2019-03-12T20:27:08.714Z,10.19
2019-03-12T20:29:41.392Z,10.25
2019-03-12T20:32:14.635Z,10.32
2019-03-12T20:34:47.204Z,10.42
2019-03-12T20:37:19.943Z,10.42
2019-03-12T20:39:52.526Z,10.35
2019-03-12T20:42:25.108Z,10.36
2019-03-12T20:44:57.835Z,10.41
2019-03-12T20:47:30.460Z,10.36
2019-03-12T20:50:02.839Z,10.48
2019-03-12T20:52:34.954Z,10.48
2019-03-12T20:55:07.616Z,10.42
2019-03-12T20:57:43.021Z,10.40
2019-03-12T21:00:16.250Z,10.46
2019-03-12T21:02:48.159Z,10.46
2019-03-12T21:05:20.761Z,10.45
2019-03-12T21:07:53.323Z,10.46
2019-03-12T21:10:26.089Z,10.48
2019-03-12T21:13:01.627Z,10.48
2019-03-12T21:15:34.587Z,10.49
2019-03-12T21:18:10.300Z,10.45
2019-03-12T21:20:42.902Z,10.47
2019-03-12T21:23:14.112Z,10.48
2019-03-12T21:25:45.941Z,10.47
2019-03-12T21:28:18.623Z,10.50
2019-03-12T21:30:47.898Z,10.54
2019-03-12T21:33:17.412Z,10.57
2019-03-12T21:35:46.628Z,10.48
2019-03-12T21:38:16.224Z,10.43
2019-03-12T21:40:45.768Z,10.50
2019-03-12T21:43:15.469Z,10.51
2019-03-12T21:45:45.106Z,10.53
2019-03-12T21:48:15.206Z,10.45
2019-03-12T21:50:44.759Z,10.41
2019-03-12T21:53:35.115Z,10.29
2019-03-12T21:56:04.586Z,10.29
2019-03-12T21:58:34.116Z,10.35
2019-03-12T22:01:04.129Z,10.34
2019-03-12T22:03:34.609Z,10.22
2019-03-12T22:06:04.257Z,10.21
2019-03-12T22:08:33.935Z,10.24
2019-03-12T22:11:03.308Z,10.30
2019-03-12T22:13:32.665Z,10.32
2019-03-12T22:16:02.000Z,10.09
2019-03-12T22:18:31.438Z,10.17
2019-03-12T22:21:00.716Z,10.05
2019-03-12T22:26:39.863Z,10.01
2019-03-12T22:29:09.411Z,10.04
2019-03-12T22:31:39.989Z,10.12
2019-03-12T22:34:09.493Z,10.07
2019-03-12T22:36:38.969Z,10.16
2019-03-12T22:39:09.167Z,10.06
2019-03-12T22:41:38.620Z,10.01
2019-03-12T22:47:42.782Z,10.17
2019-03-12T22:50:14.549Z,10.18
2019-03-12T22:52:44.148Z,10.16
2019-03-12T22:55:14.553Z,10.25
2019-03-12T22:57:43.846Z,10.29
2019-03-12T23:00:17.805Z,10.30
2019-03-12T23:02:47.435Z,10.27
2019-03-12T23:05:17.134Z,10.22
2019-03-12T23:07:46.723Z,10.21
2019-03-12T23:10:17.071Z,10.23
2019-03-12T23:12:46.627Z,10.27
2019-03-12T23:15:17.493Z,10.24
2019-03-12T23:17:46.987Z,10.31
2019-03-12T23:20:19.190Z,10.26
2019-03-12T23:22:52.010Z,10.34
2019-03-12T23:25:20.058Z,10.31
2019-03-12T23:27:49.771Z,10.30
2019-03-12T23:30:20.779Z,10.22
2019-03-12T23:32:50.504Z,10.19
2019-03-12T23:35:20.142Z,10.09
2019-03-12T23:37:49.826Z,10.17
2019-03-12T23:40:19.835Z,10.17
2019-03-12T23:42:49.561Z,10.16
2019-03-12T23:45:19.169Z,10.01
2019-03-12T23:47:50.531Z,9.91
2019-03-12T23:50:20.363Z,9.74
2019-03-12T23:52:50.012Z,9.64
2019-03-12T23:55:19.684Z,9.52
2019-03-12T23:57:49.159Z,9.07
